sensor_id;sensor_type;location;lat;lon;timestamp;pressure;altitude;pressure_sealevel;temperature;humidity
21357;BME280;10836;53.068;18.234;2023-01-29T00:02:13;101964.59;;;-2.54;100.00
21357;BME280;10836;53.068;18.234;2023-01-29T00:04:41;101949.75;;;-2.49;100.00
21357;BME280;10836;53.068;18.234;2023-01-29T00:07:07;101955.25;;;-2.50;100.00
21357;BME280;10836;53.068;18.234;2023-01-29T00:09:35;101950.59;;;-2.48;100.00
21357;BME280;10836;53.068;18.234;2023-01-29T00:12:01;101947.59;;;-2.45;100.00
21357;BME280;10836;53.068;18.234;2023-01-29T00:14:29;101946.91;;;-2.47;100.00
21357;BME280;10836;53.068;18.234;2023-01-29T00:16:56;101939.91;;;-2.48;100.00
21357;BME280;10836;53.068;18.234;2023-01-29T00:19:23;101932.25;;;-2.43;100.00
21357;BME280;10836;53.068;18.234;2023-01-29T00:21:50;101924.91;;;-2.41;100.00
21357;BME280;10836;53.068;18.234;2023-01-29T00:24:17;101927.56;;;-2.41;100.00
21357;BME280;10836;53.068;18.234;2023-01-29T00:26:44;101921.84;;;-2.46;100.00
21357;BME280;10836;53.068;18.234;2023-01-29T00:29:11;101913.19;;;-2.40;100.00
21357;BME280;10836;53.068;18.234;2023-01-29T00:31:38;101919.75;;;-2.35;100.00
21357;BME280;10836;53.068;18.234;2023-01-29T00:34:06;101915.25;;;-2.34;100.00
21357;BME280;10836;53.068;18.234;2023-01-29T00:36:33;101909.88;;;-2.34;100.00
21357;BME280;10836;53.068;18.234;2023-01-29T00:39:00;101906.22;;;-2.33;100.00
21357;BME280;10836;53.068;18.234;2023-01-29T00:41:30;101913.25;;;-2.32;100.00
21357;BME280;10836;53.068;18.234;2023-01-29T00:44:16;101914.94;;;-2.31;100.00
21357;BME280;10836;53.068;18.234;2023-01-29T00:47:03;101922.28;;;-2.33;100.00
21357;BME280;10836;53.068;18.234;2023-01-29T00:49:30;101925.00;;;-2.25;100.00
21357;BME280;10836;53.068;18.234;2023-01-29T00:51:57;101920.44;;;-2.32;100.00
21357;BME280;10836;53.068;18.234;2023-01-29T00:54:43;101918.63;;;-2.24;100.00
21357;BME280;10836;53.068;18.234;2023-01-29T00:57:09;101921.44;;;-2.33;100.00
21357;BME280;10836;53.068;18.234;2023-01-29T00:59:36;101932.38;;;-2.19;100.00
21357;BME280;10836;53.068;18.234;2023-01-29T01:02:03;101930.72;;;-2.12;100.00
21357;BME280;10836;53.068;18.234;2023-01-29T01:04:49;101920.34;;;-2.15;100.00
21357;BME280;10836;53.068;18.234;2023-01-29T01:07:16;101920.00;;;-2.12;100.00
21357;BME280;10836;53.068;18.234;2023-01-29T01:09:43;101914.34;;;-2.09;100.00
21357;BME280;10836;53.068;18.234;2023-01-29T01:12:29;101913.66;;;-2.19;100.00
21357;BME280;10836;53.068;18.234;2023-01-29T01:14:56;101915.38;;;-2.02;100.00
21357;BME280;10836;53.068;18.234;2023-01-29T01:17:24;101913.50;;;-2.09;100.00
21357;BME280;10836;53.068;18.234;2023-01-29T01:19:51;101914.34;;;-2.09;100.00
21357;BME280;10836;53.068;18.234;2023-01-29T01:22:18;101913.00;;;-2.05;100.00
21357;BME280;10836;53.068;18.234;2023-01-29T01:24:45;101909.34;;;-2.04;100.00
21357;BME280;10836;53.068;18.234;2023-01-29T01:27:12;101916.00;;;-2.08;100.00
21357;BME280;10836;53.068;18.234;2023-01-29T01:29:39;101908.66;;;-2.06;100.00
21357;BME280;10836;53.068;18.234;2023-01-29T01:32:06;101920.09;;;-1.95;100.00
21357;BME280;10836;53.068;18.234;2023-01-29T01:34:34;101914.72;;;-1.95;100.00
21357;BME280;10836;53.068;18.234;2023-01-29T01:37:01;101908.22;;;-1.93;100.00
21357;BME280;10836;53.068;18.234;2023-01-29T01:39:28;101907.06;;;-1.90;100.00
21357;BME280;10836;53.068;18.234;2023-01-29T01:41:55;101906.84;;;-1.97;100.00
21357;BME280;10836;53.068;18.234;2023-01-29T01:44:50;101915.41;;;-1.93;100.00
21357;BME280;10836;53.068;18.234;2023-01-29T01:47:30;101925.44;;;-1.95;100.00
21357;BME280;10836;53.068;18.234;2023-01-29T01:50:05;101926.06;;;-2.02;100.00
21357;BME280;10836;53.068;18.234;2023-01-29T01:52:36;101925.75;;;-1.98;100.00
21357;BME280;10836;53.068;18.234;2023-01-29T01:55:05;101920.41;;;-1.98;100.00
21357;BME280;10836;53.068;18.234;2023-01-29T01:57:33;101926.13;;;-1.93;100.00
21357;BME280;10836;53.068;18.234;2023-01-29T02:00:07;101921.13;;;-1.88;100.00
21357;BME280;10836;53.068;18.234;2023-01-29T02:02:43;101916.59;;;-1.88;100.00
21357;BME280;10836;53.068;18.234;2023-01-29T02:05:31;101922.47;;;-1.84;100.00
21357;BME280;10836;53.068;18.234;2023-01-29T02:08:33;101921.81;;;-1.78;100.00
21357;BME280;10836;53.068;18.234;2023-01-29T02:11:20;101917.78;;;-1.82;100.00
21357;BME280;10836;53.068;18.234;2023-01-29T02:13:47;101906.72;;;-1.87;100.00
21357;BME280;10836;53.068;18.234;2023-01-29T02:16:24;101904.09;;;-1.79;100.00
21357;BME280;10836;53.068;18.234;2023-01-29T02:18:52;101903.25;;;-1.80;100.00
21357;BME280;10836;53.068;18.234;2023-01-29T02:37:31;101872.59;;;-1.85;100.00
21357;BME280;10836;53.068;18.234;2023-01-29T02:40:11;101870.44;;;-1.82;100.00
21357;BME280;10836;53.068;18.234;2023-01-29T02:42:56;101868.41;;;-1.88;100.00
21357;BME280;10836;53.068;18.234;2023-01-29T02:45:37;101866.25;;;-1.84;100.00
21357;BME280;10836;53.068;18.234;2023-01-29T02:48:14;101867.25;;;-1.85;100.00
21357;BME280;10836;53.068;18.234;2023-01-29T02:50:46;101853.69;;;-1.84;100.00
21357;BME280;10836;53.068;18.234;2023-01-29T02:53:24;101852.88;;;-1.84;100.00
21357;BME280;10836;53.068;18.234;2023-01-29T02:56:00;101857.22;;;-1.83;100.00
21357;BME280;10836;53.068;18.234;2023-01-29T02:58:32;101852.53;;;-1.81;100.00
21357;BME280;10836;53.068;18.234;2023-01-29T03:01:10;101839.31;;;-1.83;100.00
21357;BME280;10836;53.068;18.234;2023-01-29T03:03:42;101833.44;;;-1.86;100.00
21357;BME280;10836;53.068;18.234;2023-01-29T03:06:18;101833.78;;;-1.89;100.00
21357;BME280;10836;53.068;18.234;2023-01-29T03:08:56;101832.28;;;-1.84;100.00
21357;BME280;10836;53.068;18.234;2023-01-29T03:11:35;101836.78;;;-1.84;100.00
21357;BME280;10836;53.068;18.234;2023-01-29T03:14:10;101827.91;;;-1.93;100.00
21357;BME280;10836;53.068;18.234;2023-01-29T03:16:43;101817.53;;;-1.88;100.00
21357;BME280;10836;53.068;18.234;2023-01-29T03:19:15;101814.38;;;-1.83;100.00
21357;BME280;10836;53.068;18.234;2023-01-29T03:21:54;101793.97;;;-1.84;100.00
21357;BME280;10836;53.068;18.234;2023-01-29T03:24:44;101793.97;;;-1.84;100.00
21357;BME280;10836;53.068;18.234;2023-01-29T03:27:36;101788.59;;;-1.84;100.00
21357;BME280;10836;53.068;18.234;2023-01-29T03:30:32;101790.97;;;-1.81;100.00
21357;BME280;10836;53.068;18.234;2023-01-29T03:33:31;101784.94;;;-1.83;100.00
21357;BME280;10836;53.068;18.234;2023-01-29T03:36:05;101790.28;;;-1.83;100.00
21357;BME280;10836;53.068;18.234;2023-01-29T03:38:34;101782.94;;;-1.81;100.00
21357;BME280;10836;53.068;18.234;2023-01-29T03:41:05;101772.72;;;-1.86;100.00
21357;BME280;10836;53.068;18.234;2023-01-29T03:46:24;101774.06;;;-1.82;100.00
21357;BME280;10836;53.068;18.234;2023-01-29T03:49:01;101769.38;;;-1.80;100.00
21357;BME280;10836;53.068;18.234;2023-01-29T03:51:38;101767.53;;;-1.87;100.00
21357;BME280;10836;53.068;18.234;2023-01-29T04:02:29;101769.53;;;-1.81;100.00
21357;BME280;10836;53.068;18.234;2023-01-29T04:05:04;101764.16;;;-1.73;100.00
21357;BME280;10836;53.068;18.234;2023-01-29T04:07:47;101762.00;;;-1.78;100.00
21357;BME280;10836;53.068;18.234;2023-01-29T04:10:20;101770.22;;;-1.79;100.00
21357;BME280;10836;53.068;18.234;2023-01-29T04:13:01;101761.47;;;-1.73;100.00
21357;BME280;10836;53.068;18.234;2023-01-29T04:15:33;101762.84;;;-1.77;100.00
21357;BME280;10836;53.068;18.234;2023-01-29T04:18:02;101753.44;;;-1.73;100.00
21357;BME280;10836;53.068;18.234;2023-01-29T04:20:40;101754.13;;;-1.63;100.00
21357;BME280;10836;53.068;18.234;2023-01-29T04:23:19;101747.78;;;-1.78;100.00
21357;BME280;10836;53.068;18.234;2023-01-29T04:29:09;101742.09;;;-1.75;100.00
21357;BME280;10836;53.068;18.234;2023-01-29T04:42:53;101740.75;;;-1.87;100.00
21357;BME280;10836;53.068;18.234;2023-01-29T04:48:28;101727.72;;;-1.82;100.00
21357;BME280;10836;53.068;18.234;2023-01-29T04:51:07;101749.13;;;-1.82;100.00
21357;BME280;10836;53.068;18.234;2023-01-29T04:59:12;101735.25;;;-1.78;100.00
21357;BME280;10836;53.068;18.234;2023-01-29T05:01:40;101721.69;;;-1.76;100.00
21357;BME280;10836;53.068;18.234;2023-01-29T05:04:11;101725.38;;;-1.77;100.00
21357;BME280;10836;53.068;18.234;2023-01-29T05:06:40;101734.41;;;-1.78;100.00
21357;BME280;10836;53.068;18.234;2023-01-29T05:09:08;101724.34;;;-1.76;100.00
21357;BME280;10836;53.068;18.234;2023-01-29T05:11:35;101726.88;;;-1.83;100.00
21357;BME280;10836;53.068;18.234;2023-01-29T05:14:06;101730.72;;;-1.77;100.00
21357;BME280;10836;53.068;18.234;2023-01-29T05:16:52;101738.59;;;-1.76;100.00
21357;BME280;10836;53.068;18.234;2023-01-29T05:19:21;101734.41;;;-1.78;100.00
21357;BME280;10836;53.068;18.234;2023-01-29T05:21:49;101730.03;;;-1.71;100.00
21357;BME280;10836;53.068;18.234;2023-01-29T05:24:19;101724.34;;;-1.76;100.00
21357;BME280;10836;53.068;18.234;2023-01-29T05:26:48;101723.34;;;-1.75;100.00
21357;BME280;10836;53.068;18.234;2023-01-29T05:29:34;101723.34;;;-1.75;100.00
21357;BME280;10836;53.068;18.234;2023-01-29T05:32:01;101724.03;;;-1.81;100.00
21357;BME280;10836;53.068;18.234;2023-01-29T05:34:29;101729.72;;;-1.92;100.00
21357;BME280;10836;53.068;18.234;2023-01-29T05:36:56;101726.19;;;-1.93;100.00
21357;BME280;10836;53.068;18.234;2023-01-29T05:39:23;101728.53;;;-1.98;100.00
21357;BME280;10836;53.068;18.234;2023-01-29T05:41:50;101732.03;;;-1.97;100.00
21357;BME280;10836;53.068;18.234;2023-01-29T05:44:17;101732.72;;;-1.95;100.00
21357;BME280;10836;53.068;18.234;2023-01-29T05:46:44;101738.22;;;-1.97;100.00
21357;BME280;10836;53.068;18.234;2023-01-29T05:49:11;101733.03;;;-1.98;100.00
21357;BME280;10836;53.068;18.234;2023-01-29T05:51:39;101739.41;;;-1.83;100.00
21357;BME280;10836;53.068;18.234;2023-01-29T05:54:05;101734.06;;;-1.91;100.00
21357;BME280;10836;53.068;18.234;2023-01-29T05:56:32;101722.69;;;-1.93;100.00
21357;BME280;10836;53.068;18.234;2023-01-29T05:58:59;101721.84;;;-2.02;100.00
21357;BME280;10836;53.068;18.234;2023-01-29T06:01:26;101731.69;;;-2.03;100.00
21357;BME280;10836;53.068;18.234;2023-01-29T06:03:53;101730.53;;;-1.92;100.00
21357;BME280;10836;53.068;18.234;2023-01-29T06:06:20;101737.06;;;-2.03;100.00
21357;BME280;10836;53.068;18.234;2023-01-29T06:08:47;101752.94;;;-2.01;100.00
21357;BME280;10836;53.068;18.234;2023-01-29T06:11:15;101748.78;;;-1.95;100.00
21357;BME280;10836;53.068;18.234;2023-01-29T06:13:44;101743.41;;;-1.95;100.00
21357;BME280;10836;53.068;18.234;2023-01-29T06:16:12;101740.72;;;-2.12;100.00
21357;BME280;10836;53.068;18.234;2023-01-29T06:18:39;101747.91;;;-2.12;100.00
21357;BME280;10836;53.068;18.234;2023-01-29T06:21:09;101752.09;;;-2.10;100.00
21357;BME280;10836;53.068;18.234;2023-01-29T06:23:37;101756.25;;;-2.15;100.00
21357;BME280;10836;53.068;18.234;2023-01-29T06:26:06;101757.47;;;-2.18;100.00
21357;BME280;10836;53.068;18.234;2023-01-29T06:28:34;101761.78;;;-2.09;100.00
21357;BME280;10836;53.068;18.234;2023-01-29T06:31:02;101765.28;;;-2.16;100.00
21357;BME280;10836;53.068;18.234;2023-01-29T06:33:49;101773.50;;;-2.10;100.00
21357;BME280;10836;53.068;18.234;2023-01-29T06:36:17;101768.66;;;-2.06;100.00
21357;BME280;10836;53.068;18.234;2023-01-29T06:38:43;101770.00;;;-2.10;100.00
21357;BME280;10836;53.068;18.234;2023-01-29T06:41:12;101762.63;;;-2.16;100.00
21357;BME280;10836;53.068;18.234;2023-01-29T06:43:39;101759.13;;;-2.01;100.00
21357;BME280;10836;53.068;18.234;2023-01-29T06:46:09;101741.75;;;-1.96;100.00
21357;BME280;10836;53.068;18.234;2023-01-29T06:48:36;101732.88;;;-2.05;100.00
21357;BME280;10836;53.068;18.234;2023-01-29T06:51:05;101754.44;;;-1.98;100.00
21357;BME280;10836;53.068;18.234;2023-01-29T06:53:34;101742.75;;;-1.89;100.00
21357;BME280;10836;53.068;18.234;2023-01-29T06:56:01;101744.59;;;-1.98;100.00
21357;BME280;10836;53.068;18.234;2023-01-29T06:58:28;101741.75;;;-1.96;100.00
21357;BME280;10836;53.068;18.234;2023-01-29T07:01:09;101735.72;;;-1.98;100.00
21357;BME280;10836;53.068;18.234;2023-01-29T07:03:51;101738.06;;;-1.95;100.00
21357;BME280;10836;53.068;18.234;2023-01-29T07:06:18;101737.75;;;-1.84;100.00
21357;BME280;10836;53.068;18.234;2023-01-29T07:08:45;101729.38;;;-1.89;100.00
21357;BME280;10836;53.068;18.234;2023-01-29T07:11:12;101740.75;;;-1.87;100.00
21357;BME280;10836;53.068;18.234;2023-01-29T07:13:39;101743.94;;;-1.84;100.00
21357;BME280;10836;53.068;18.234;2023-01-29T07:16:06;101738.41;;;-1.82;100.00
21357;BME280;10836;53.068;18.234;2023-01-29T07:18:33;101740.75;;;-1.87;100.00
21357;BME280;10836;53.068;18.234;2023-01-29T07:21:04;101743.09;;;-1.84;100.00
21357;BME280;10836;53.068;18.234;2023-01-29T07:23:33;101736.75;;;-1.83;100.00
21357;BME280;10836;53.068;18.234;2023-01-29T07:26:02;101727.03;;;-1.76;100.00
21357;BME280;10836;53.068;18.234;2023-01-29T07:28:29;101724.34;;;-1.84;100.00
21357;BME280;10836;53.068;18.234;2023-01-29T07:30:57;101728.38;;;-1.88;100.00
21357;BME280;10836;53.068;18.234;2023-01-29T07:33:24;101731.34;;;-1.67;100.00
21357;BME280;10836;53.068;18.234;2023-01-29T07:35:52;101720.66;;;-1.67;100.00
21357;BME280;10836;53.068;18.234;2023-01-29T07:38:19;101720.97;;;-1.62;100.00
21357;BME280;10836;53.068;18.234;2023-01-29T07:40:46;101730.69;;;-1.61;100.00
21357;BME280;10836;53.068;18.234;2023-01-29T07:43:13;101729.00;;;-1.54;100.00
21357;BME280;10836;53.068;18.234;2023-01-29T07:45:40;101725.16;;;-1.51;100.00
21357;BME280;10836;53.068;18.234;2023-01-29T07:48:10;101724.66;;;-1.55;100.00
21357;BME280;10836;53.068;18.234;2023-01-29T07:50:38;101720.31;;;-1.56;100.00
21357;BME280;10836;53.068;18.234;2023-01-29T07:53:05;101723.97;;;-1.49;100.00
21357;BME280;10836;53.068;18.234;2023-01-29T07:55:33;101722.97;;;-1.56;100.00
21357;BME280;10836;53.068;18.234;2023-01-29T07:58:02;101721.97;;;-1.47;100.00
21357;BME280;10836;53.068;18.234;2023-01-29T08:00:30;101717.97;;;-1.51;100.00
21357;BME280;10836;53.068;18.234;2023-01-29T08:03:04;101711.25;;;-1.30;100.00
21357;BME280;10836;53.068;18.234;2023-01-29T08:05:32;101710.53;;;-1.24;100.00
21357;BME280;10836;53.068;18.234;2023-01-29T08:07:59;101709.16;;;-1.20;100.00
21357;BME280;10836;53.068;18.234;2023-01-29T08:10:34;101708.50;;;-1.22;100.00
21357;BME280;10836;53.068;18.234;2023-01-29T08:13:03;101697.78;;;-1.22;100.00
21357;BME280;10836;53.068;18.234;2023-01-29T08:15:31;101692.44;;;-1.22;100.00
21357;BME280;10836;53.068;18.234;2023-01-29T08:17:59;101690.06;;;-1.17;100.00
21357;BME280;10836;53.068;18.234;2023-01-29T08:20:27;101680.00;;;-1.07;100.00
21357;BME280;10836;53.068;18.234;2023-01-29T08:22:58;101681.28;;;-0.95;100.00
21357;BME280;10836;53.068;18.234;2023-01-29T08:25:26;101684.56;;;-0.85;100.00
21357;BME280;10836;53.068;18.234;2023-01-29T08:27:55;101683.00;;;-1.02;100.00
21357;BME280;10836;53.068;18.234;2023-01-29T08:30:28;101676.25;;;-0.90;100.00
21357;BME280;10836;53.068;18.234;2023-01-29T08:32:55;101675.94;;;-0.95;100.00
21357;BME280;10836;53.068;18.234;2023-01-29T08:35:23;101673.84;;;-0.85;100.00
21357;BME280;10836;53.068;18.234;2023-01-29T08:37:54;101653.19;;;-1.07;100.00
21357;BME280;10836;53.068;18.234;2023-01-29T08:40:21;101654.81;;;-0.98;100.00
21357;BME280;10836;53.068;18.234;2023-01-29T08:42:48;101655.16;;;-0.93;100.00
21357;BME280;10836;53.068;18.234;2023-01-29T08:45:16;101652.84;;;-1.04;100.00
21357;BME280;10836;53.068;18.234;2023-01-29T08:47:47;101660.50;;;-0.93;100.00
21357;BME280;10836;53.068;18.234;2023-01-29T08:50:15;101655.50;;;-0.96;100.00
21357;BME280;10836;53.068;18.234;2023-01-29T08:52:43;101669.31;;;-0.84;100.00
21357;BME280;10836;53.068;18.234;2023-01-29T08:55:11;101666.13;;;-0.80;100.00
21357;BME280;10836;53.068;18.234;2023-01-29T08:57:38;101661.81;;;-0.89;100.00
21357;BME280;10836;53.068;18.234;2023-01-29T09:00:07;101666.47;;;-0.83;100.00
21357;BME280;10836;53.068;18.234;2023-01-29T09:02:35;101668.47;;;-0.85;100.00
21357;BME280;10836;53.068;18.234;2023-01-29T09:05:02;101674.47;;;-0.75;100.00
21357;BME280;10836;53.068;18.234;2023-01-29T09:07:29;101666.03;;;-0.63;100.00
21357;BME280;10836;53.068;18.234;2023-01-29T09:09:56;101670.06;;;-0.68;100.00
21357;BME280;10836;53.068;18.234;2023-01-29T09:12:23;101667.19;;;-0.58;100.00
21357;BME280;10836;53.068;18.234;2023-01-29T09:14:50;101666.38;;;-0.67;100.00
21357;BME280;10836;53.068;18.234;2023-01-29T09:17:17;101659.38;;;-0.76;100.00
21357;BME280;10836;53.068;18.234;2023-01-29T09:19:44;101665.38;;;-0.65;100.00
21357;BME280;10836;53.068;18.234;2023-01-29T09:22:11;101661.53;;;-0.71;100.00
21357;BME280;10836;53.068;18.234;2023-01-29T09:24:38;101670.34;;;-0.54;100.00
21357;BME280;10836;53.068;18.234;2023-01-29T09:27:05;101681.78;;;-0.60;100.00
21357;BME280;10836;53.068;18.234;2023-01-29T09:29:32;101665.63;;;-0.52;100.00
21357;BME280;10836;53.068;18.234;2023-01-29T09:32:03;101662.66;;;-0.57;100.00
21357;BME280;10836;53.068;18.234;2023-01-29T09:34:30;101645.66;;;-0.50;100.00
21357;BME280;10836;53.068;18.234;2023-01-29T09:36:57;101652.88;;;-0.50;100.00
21357;BME280;10836;53.068;18.234;2023-01-29T09:39:24;101650.19;;;-0.50;100.00
21357;BME280;10836;53.068;18.234;2023-01-29T09:42:10;101656.28;;;-0.56;100.00
21357;BME280;10836;53.068;18.234;2023-01-29T09:45:04;101657.53;;;-0.44;100.00
21357;BME280;10836;53.068;18.234;2023-01-29T09:47:36;101657.47;;;-0.36;100.00
21357;BME280;10836;53.068;18.234;2023-01-29T09:50:16;101651.50;;;-0.46;100.00
21357;BME280;10836;53.068;18.234;2023-01-29T09:52:56;101654.56;;;-0.49;100.00
21357;BME280;10836;53.068;18.234;2023-01-29T09:55:29;101649.09;;;-0.41;100.00
21357;BME280;10836;53.068;18.234;2023-01-29T09:58:01;101648.03;;;-0.32;100.00
21357;BME280;10836;53.068;18.234;2023-01-29T10:00:37;101650.00;;;-0.26;100.00
21357;BME280;10836;53.068;18.234;2023-01-29T10:25:18;101591.38;;;-0.37;100.00
21357;BME280;10836;53.068;18.234;2023-01-29T10:27:49;101584.94;;;-0.28;100.00
21357;BME280;10836;53.068;18.234;2023-01-29T10:30:36;101585.41;;;-0.24;100.00
21357;BME280;10836;53.068;18.234;2023-01-29T10:33:08;101579.94;;;-0.31;100.00
21357;BME280;10836;53.068;18.234;2023-01-29T10:35:43;101588.34;;;-0.34;100.00
21357;BME280;10836;53.068;18.234;2023-01-29T10:38:36;101579.56;;;-0.28;100.00
21357;BME280;10836;53.068;18.234;2023-01-29T10:48:56;101565.09;;;-0.42;100.00
21357;BME280;10836;53.068;18.234;2023-01-29T10:54:13;101559.84;;;-0.35;100.00
21357;BME280;10836;53.068;18.234;2023-01-29T11:02:17;101553.56;;;-0.27;100.00
21357;BME280;10836;53.068;18.234;2023-01-29T11:04:44;101551.06;;;-0.29;100.00
21357;BME280;10836;53.068;18.234;2023-01-29T11:07:12;101539.38;;;-0.36;100.00
21357;BME280;10836;53.068;18.234;2023-01-29T11:09:47;101536.56;;;-0.20;100.00
21357;BME280;10836;53.068;18.234;2023-01-29T11:12:21;101535.19;;;-0.16;100.00
21357;BME280;10836;53.068;18.234;2023-01-29T11:15:06;101532.31;;;-0.14;100.00
21357;BME280;10836;53.068;18.234;2023-01-29T11:17:59;101513.78;;;-0.24;100.00
21357;BME280;10836;53.068;18.234;2023-01-29T11:20:28;101520.44;;;-0.20;100.00
21357;BME280;10836;53.068;18.234;2023-01-29T11:22:57;101520.84;;;-0.08;100.00
21357;BME280;10836;53.068;18.234;2023-01-29T11:25:25;101525.75;;;-0.12;100.00
21357;BME280;10836;53.068;18.234;2023-01-29T11:27:57;101514.09;;;-0.04;100.00
21357;BME280;10836;53.068;18.234;2023-01-29T11:30:33;101523.81;;;-0.03;100.00
21357;BME280;10836;53.068;18.234;2023-01-29T11:33:21;101523.78;;;-0.18;100.00
21357;BME280;10836;53.068;18.234;2023-01-29T11:35:51;101501.28;;;-0.17;100.00
21357;BME280;10836;53.068;18.234;2023-01-29T11:38:22;101510.66;;;-0.13;100.00
21357;BME280;10836;53.068;18.234;2023-01-29T11:40:50;101514.47;;;-0.07;100.00
21357;BME280;10836;53.068;18.234;2023-01-29T11:46:04;101496.13;;;-0.04;100.00
21357;BME280;10836;53.068;18.234;2023-01-29T11:48:52;101487.72;;;-0.01;100.00
21357;BME280;10836;53.068;18.234;2023-01-29T11:51:38;101490.41;;;-0.01;100.00
21357;BME280;10836;53.068;18.234;2023-01-29T11:54:14;101483.34;;;-0.02;100.00
21357;BME280;10836;53.068;18.234;2023-01-29T11:56:44;101480.03;;;-0.04;100.00
21357;BME280;10836;53.068;18.234;2023-01-29T11:59:42;101463.34;;;-0.14;100.00
21357;BME280;10836;53.068;18.234;2023-01-29T12:04:44;101453.91;;;-0.10;100.00
21357;BME280;10836;53.068;18.234;2023-01-29T12:07:14;101460.31;;;-0.11;100.00
21357;BME280;10836;53.068;18.234;2023-01-29T12:09:48;101464.06;;;0.10;100.00
21357;BME280;10836;53.068;18.234;2023-01-29T12:12:27;101464.47;;;-0.08;100.00
21357;BME280;10836;53.068;18.234;2023-01-29T12:15:14;101463.09;;;-0.04;100.00
21357;BME280;10836;53.068;18.234;2023-01-29T12:17:49;101459.09;;;-0.23;100.00
21357;BME280;10836;53.068;18.234;2023-01-29T12:20:23;101456.31;;;-0.15;100.00
21357;BME280;10836;53.068;18.234;2023-01-29T12:23:02;101454.28;;;-0.13;100.00
21357;BME280;10836;53.068;18.234;2023-01-29T12:28:40;101461.22;;;-0.18;100.00
21357;BME280;10836;53.068;18.234;2023-01-29T12:31:23;101445.94;;;-0.18;100.00
21357;BME280;10836;53.068;18.234;2023-01-29T12:33:59;101458.25;;;-0.23;100.00
21357;BME280;10836;53.068;18.234;2023-01-29T12:36:50;101457.78;;;-0.27;100.00
21357;BME280;10836;53.068;18.234;2023-01-29T12:39:20;101453.25;;;-0.26;100.00
21357;BME280;10836;53.068;18.234;2023-01-29T12:44:32;101456.13;;;-0.28;100.00
21357;BME280;10836;53.068;18.234;2023-01-29T12:47:02;101443.34;;;-0.26;100.00
21357;BME280;10836;53.068;18.234;2023-01-29T12:49:34;101443.53;;;-0.27;100.00
21357;BME280;10836;53.068;18.234;2023-01-29T12:52:11;101448.34;;;-0.23;100.00
21357;BME280;10836;53.068;18.234;2023-01-29T12:57:43;101435.84;;;-0.16;100.00
21357;BME280;10836;53.068;18.234;2023-01-29T13:00:19;101432.81;;;-0.13;100.00
21357;BME280;10836;53.068;18.234;2023-01-29T13:03:16;101437.97;;;-0.26;100.00
21357;BME280;10836;53.068;18.234;2023-01-29T13:05:58;101428.63;;;-0.15;100.00
21357;BME280;10836;53.068;18.234;2023-01-29T13:08:34;101424.47;;;-0.18;100.00
21357;BME280;10836;53.068;18.234;2023-01-29T13:11:25;101421.50;;;-0.23;100.00
21357;BME280;10836;53.068;18.234;2023-01-29T13:13:58;101407.72;;;-0.20;100.00
21357;BME280;10836;53.068;18.234;2023-01-29T13:16:31;101398.47;;;-0.17;100.00
21357;BME280;10836;53.068;18.234;2023-01-29T13:19:03;101403.00;;;-0.18;100.00
21357;BME280;10836;53.068;18.234;2023-01-29T13:21:36;101406.13;;;-0.29;100.00
21357;BME280;10836;53.068;18.234;2023-01-29T13:24:17;101412.81;;;-0.10;100.00
21357;BME280;10836;53.068;18.234;2023-01-29T13:26:46;101399.47;;;-0.18;100.00
21357;BME280;10836;53.068;18.234;2023-01-29T13:29:25;101404.09;;;-0.27;100.00
21357;BME280;10836;53.068;18.234;2023-01-29T13:31:55;101397.91;;;-0.27;100.00
21357;BME280;10836;53.068;18.234;2023-01-29T13:34:25;101402.91;;;-0.24;100.00
21357;BME280;10836;53.068;18.234;2023-01-29T13:36:56;101393.75;;;-0.30;100.00
21357;BME280;10836;53.068;18.234;2023-01-29T13:41:56;101379.84;;;-0.19;100.00
21357;BME280;10836;53.068;18.234;2023-01-29T13:44:35;101382.00;;;-0.29;100.00
21357;BME280;10836;53.068;18.234;2023-01-29T13:47:06;101381.34;;;-0.31;100.00
21357;BME280;10836;53.068;18.234;2023-01-29T13:49:56;101390.59;;;-0.19;100.00
21357;BME280;10836;53.068;18.234;2023-01-29T14:02:47;101385.13;;;-0.25;100.00
21357;BME280;10836;53.068;18.234;2023-01-29T14:13:42;101381.72;;;-0.34;100.00
21357;BME280;10836;53.068;18.234;2023-01-29T14:18:48;101383.00;;;-0.30;100.00
21357;BME280;10836;53.068;18.234;2023-01-29T14:21:34;101382.53;;;-0.34;100.00
21357;BME280;10836;53.068;18.234;2023-01-29T14:24:10;101386.34;;;-0.28;100.00
21357;BME280;10836;53.068;18.234;2023-01-29T14:26:43;101378.75;;;-0.39;100.00
21357;BME280;10836;53.068;18.234;2023-01-29T14:29:30;101373.84;;;-0.21;100.00
21357;BME280;10836;53.068;18.234;2023-01-29T14:32:20;101366.53;;;-0.27;100.00
21357;BME280;10836;53.068;18.234;2023-01-29T14:35:00;101369.31;;;-0.35;100.00
21357;BME280;10836;53.068;18.234;2023-01-29T14:37:33;101379.31;;;-0.29;100.00
21357;BME280;10836;53.068;18.234;2023-01-29T14:40:22;101386.72;;;-0.31;100.00
21357;BME280;10836;53.068;18.234;2023-01-29T14:43:05;101381.63;;;-0.26;100.00
21357;BME280;10836;53.068;18.234;2023-01-29T14:45:35;101368.09;;;-0.32;100.00
21357;BME280;10836;53.068;18.234;2023-01-29T14:53:22;101367.81;;;-0.38;100.00
21357;BME280;10836;53.068;18.234;2023-01-29T14:56:10;101361.81;;;-0.25;100.00
21357;BME280;10836;53.068;18.234;2023-01-29T14:58:49;101358.13;;;-0.24;100.00
21357;BME280;10836;53.068;18.234;2023-01-29T15:03:50;101348.22;;;-0.38;100.00
21357;BME280;10836;53.068;18.234;2023-01-29T15:06:25;101332.38;;;-0.33;100.00
21357;BME280;10836;53.068;18.234;2023-01-29T15:09:02;101342.47;;;-0.35;100.00
21357;BME280;10836;53.068;18.234;2023-01-29T15:11:48;101347.38;;;-0.39;100.00
21357;BME280;10836;53.068;18.234;2023-01-29T15:14:38;101356.16;;;-0.30;100.00